createdAt,value
2023-03-03T05:08:23.363Z,27.20
2023-03-03T05:10:56.920Z,27.30
2023-03-03T05:13:26.317Z,27.30
2023-03-03T05:15:57.698Z,27.40
2023-03-03T05:18:27.752Z,27.30
2023-03-03T05:20:57.343Z,27.30
2023-03-03T05:23:29.800Z,27.40
2023-03-03T05:25:59.255Z,27.30
2023-03-03T05:28:28.757Z,27.10
2023-03-03T05:30:58.269Z,26.80
2023-03-03T05:33:27.741Z,26.70
2023-03-03T05:35:57.928Z,26.50
2023-03-03T05:38:27.558Z,26.40
2023-03-03T05:40:57.051Z,26.20
2023-03-03T05:43:26.569Z,26.10
2023-03-03T05:45:59.653Z,26.20
2023-03-03T05:48:29.684Z,26.10
2023-03-03T05:51:02.521Z,26.10
2023-03-03T05:53:32.354Z,26.00
2023-03-03T05:56:01.949Z,25.90
2023-03-03T05:58:31.968Z,25.90
2023-03-03T06:01:01.349Z,26.00
2023-03-03T06:03:33.843Z,26.20
2023-03-03T06:06:08.124Z,26.30
2023-03-03T06:47:43.213Z,24.90
2023-03-03T06:50:13.640Z,24.80
2023-03-03T06:52:42.999Z,24.70
2023-03-03T06:55:15.099Z,24.60
2023-03-03T06:57:44.557Z,24.50
2023-03-03T07:00:18.787Z,24.30
2023-03-03T07:02:48.926Z,24.30
2023-03-03T07:05:20.071Z,24.30
2023-03-03T07:07:50.964Z,24.20
2023-03-03T07:10:24.377Z,24.20
2023-03-03T07:13:00.176Z,24.10
2023-03-03T07:15:36.205Z,24.00
2023-03-03T07:18:25.240Z,24.00
2023-03-03T07:20:57.822Z,24.00
2023-03-03T07:23:32.386Z,24.00
2023-03-03T07:26:01.883Z,24.00
2023-03-03T07:28:31.999Z,23.80
2023-03-03T07:31:02.218Z,23.80
2023-03-03T07:33:33.892Z,23.80
2023-03-03T07:36:04.234Z,23.80
2023-03-03T07:38:36.323Z,23.80
2023-03-03T07:41:07.561Z,23.80
2023-03-03T07:43:42.422Z,23.80
2023-03-03T07:46:16.732Z,23.70
2023-03-03T07:48:49.364Z,23.70
2023-03-03T07:51:30.651Z,23.70
2023-03-03T07:54:15.245Z,23.60
2023-03-03T07:56:44.660Z,23.40
2023-03-03T07:59:29.363Z,23.20
2023-03-03T08:02:03.689Z,23.10
2023-03-03T08:04:37.011Z,22.90
2023-03-03T08:07:15.053Z,22.80
2023-03-03T08:09:47.608Z,22.70
2023-03-03T08:12:21.137Z,22.70
2023-03-03T08:14:53.429Z,22.60
2023-03-03T08:17:25.243Z,22.50
2023-03-03T08:19:55.504Z,22.40
2023-03-03T08:22:28.370Z,22.30
2023-03-03T08:24:57.742Z,22.30
2023-03-03T08:27:27.216Z,22.10
2023-03-03T08:29:56.683Z,22.00
2023-03-03T08:32:26.172Z,22.00
2023-03-03T08:34:55.569Z,21.90
2023-03-03T08:37:26.004Z,21.80
2023-03-03T08:39:58.311Z,21.70
2023-03-03T08:42:27.814Z,21.70
2023-03-03T08:57:51.564Z,21.40
2023-03-03T09:00:21.985Z,21.30
2023-03-03T09:02:54.225Z,21.30
2023-03-03T09:05:24.199Z,21.30
2023-03-03T09:07:56.678Z,21.20
2023-03-03T09:10:32.405Z,21.20
2023-03-03T09:13:05.233Z,21.10
2023-03-03T09:15:36.492Z,21.10
2023-03-03T09:18:24.688Z,21.10
2023-03-03T09:20:56.083Z,21.00
2023-03-03T09:23:39.226Z,21.00
2023-03-03T09:26:21.675Z,21.00
2023-03-03T09:28:51.498Z,21.00
2023-03-03T09:31:54.668Z,21.00
2023-03-03T09:34:30.357Z,20.90
2023-03-03T09:37:03.172Z,20.90
2023-03-03T09:39:33.065Z,20.90
2023-03-03T09:42:05.422Z,20.80
2023-03-03T09:44:37.766Z,20.90
2023-03-03T09:47:25.308Z,20.80
2023-03-03T09:50:20.337Z,20.80
2023-03-03T09:53:04.810Z,20.70
2023-03-03T09:55:46.795Z,20.70
2023-03-03T09:58:26.102Z,20.60
2023-03-03T10:00:59.143Z,20.70
2023-03-03T10:03:49.988Z,20.60
2023-03-03T10:06:32.332Z,20.50
2023-03-03T10:09:07.978Z,20.50
2023-03-03T10:11:58.643Z,20.60
2023-03-03T10:14:55.515Z,20.50
2023-03-03T10:17:43.336Z,20.50
2023-03-03T10:20:47.519Z,20.40
2023-03-03T10:23:43.405Z,20.40
2023-03-03T10:26:42.195Z,20.40
2023-03-03T10:29:23.674Z,20.40
2023-03-03T10:31:57.497Z,20.40
2023-03-03T10:34:49.126Z,20.40
2023-03-03T10:37:29.568Z,20.30
2023-03-03T10:40:07.835Z,20.30
2023-03-03T10:42:48.090Z,20.20
2023-03-03T10:45:18.048Z,20.20
2023-03-03T10:47:56.222Z,20.10
2023-03-03T10:50:32.219Z,20.10
2023-03-03T10:53:20.726Z,20.10
2023-03-03T10:56:01.155Z,20.10
2023-03-03T10:58:38.761Z,20.10
2023-03-03T11:01:12.014Z,20.10
2023-03-03T11:04:08.746Z,20.10
2023-03-03T11:06:47.489Z,20.00
2023-03-03T11:09:42.058Z,20.00
2023-03-03T11:12:22.799Z,20.00
2023-03-03T11:15:10.866Z,20.00
2023-03-03T11:18:02.383Z,20.00
2023-03-03T11:20:31.809Z,20.00
2023-03-03T11:23:07.310Z,19.90
2023-03-03T11:25:48.679Z,19.90
2023-03-03T11:28:21.069Z,19.80
2023-03-03T11:31:05.817Z,19.80
2023-03-03T11:33:35.610Z,19.80
2023-03-03T11:36:14.320Z,19.80
2023-03-03T16:07:11.743Z,18.10
2023-03-03T16:09:49.708Z,18.10
2023-03-03T16:12:37.881Z,18.10
2023-03-03T16:15:30.390Z,18.10
2023-03-03T16:18:18.352Z,18.00
2023-03-03T16:21:16.628Z,18.00
2023-03-03T16:23:46.439Z,17.90
2023-03-03T16:26:31.664Z,17.90
2023-03-03T16:29:21.001Z,18.00
2023-03-03T16:31:51.784Z,18.00
2023-03-03T16:34:28.638Z,18.00
2023-03-03T16:37:13.297Z,17.90
2023-03-03T16:39:45.889Z,17.90
2023-03-03T16:42:34.857Z,17.90
2023-03-03T16:45:04.184Z,17.80
2023-03-03T16:48:05.787Z,17.80
2023-03-03T16:50:41.568Z,17.80
2023-03-03T16:53:26.156Z,17.80
2023-03-03T16:56:13.629Z,17.80
2023-03-03T16:58:42.989Z,17.80
2023-03-03T17:01:15.506Z,17.80
2023-03-03T17:03:59.715Z,17.70
2023-03-03T17:06:42.973Z,17.70
2023-03-03T17:09:20.378Z,17.70
2023-03-03T17:12:04.177Z,17.60
2023-03-03T17:14:51.814Z,17.60
2023-03-03T17:17:33.339Z,17.50
2023-03-03T17:20:23.431Z,17.60
2023-03-03T17:23:05.046Z,17.60
2023-03-03T17:25:52.423Z,17.50
2023-03-03T17:28:33.271Z,17.50
2023-03-03T17:31:15.687Z,17.50
2023-03-03T17:33:51.394Z,17.40
2023-03-03T17:36:26.901Z,17.40
2023-03-03T17:38:59.074Z,17.40
2023-03-03T17:41:47.223Z,17.40
2023-03-03T17:44:43.060Z,17.30
2023-03-03T17:47:23.346Z,17.30
2023-03-03T17:50:10.823Z,17.30
2023-03-03T17:52:48.275Z,17.30
2023-03-03T17:55:27.422Z,17.30
2023-03-03T17:57:56.723Z,17.30
2023-03-03T18:00:44.622Z,17.30
2023-03-03T18:03:17.023Z,17.20
2023-03-03T18:05:46.370Z,17.20
2023-03-03T18:08:30.531Z,17.30
2023-03-03T18:11:15.045Z,17.20
2023-03-03T18:13:55.983Z,17.30
2023-03-03T18:16:28.853Z,17.30
2023-03-03T18:19:16.686Z,17.30
2023-03-03T18:21:53.502Z,17.30
2023-03-03T18:24:31.231Z,17.30
2023-03-03T18:27:15.325Z,17.30
2023-03-03T18:53:22.950Z,17.30
2023-03-03T18:55:53.690Z,17.30
2023-03-03T18:58:23.477Z,17.30
2023-03-03T19:00:55.875Z,17.30
2023-03-03T19:03:35.108Z,17.30
2023-03-03T19:06:05.526Z,17.30
2023-03-03T19:08:55.833Z,17.30
2023-03-03T19:11:46.869Z,17.30
2023-03-03T19:14:16.615Z,17.30
2023-03-03T19:16:46.867Z,17.30
2023-03-03T19:19:20.349Z,17.30
2023-03-03T19:21:52.806Z,17.30
2023-03-03T19:24:25.238Z,17.30
2023-03-03T19:27:07.106Z,17.30
2023-03-03T19:29:48.410Z,17.30
2023-03-03T19:32:28.507Z,17.30
2023-03-03T19:34:58.411Z,17.30
2023-03-03T19:37:45.888Z,17.30
2023-03-03T19:40:27.599Z,17.30
2023-03-03T19:43:07.094Z,17.30
2023-03-03T19:45:36.844Z,17.30
2023-03-03T19:48:09.389Z,17.30
2023-03-03T19:50:39.180Z,17.30
2023-03-03T19:56:12.591Z,17.30
2023-03-03T19:58:43.715Z,17.30
2023-03-03T20:01:51.516Z,17.30
2023-03-03T20:04:37.128Z,17.30
2023-03-03T20:07:17.435Z,17.40
2023-03-03T20:09:56.810Z,17.40
2023-03-03T20:12:26.225Z,17.40
2023-03-03T20:14:56.899Z,17.50
2023-03-03T20:17:29.311Z,17.50
2023-03-03T20:20:05.599Z,17.50
2023-03-03T20:22:40.978Z,17.50
2023-03-03T20:25:10.421Z,17.50
2023-03-03T20:27:57.748Z,17.50
2023-03-03T20:30:27.853Z,17.50
2023-03-03T20:33:00.190Z,17.50
2023-03-03T20:36:01.904Z,17.50
2023-03-03T20:38:34.569Z,17.50
2023-03-03T20:41:22.503Z,17.50
2023-03-03T20:44:09.965Z,17.50
2023-03-03T20:46:48.954Z,17.60
2023-03-03T20:49:36.522Z,17.60
2023-03-03T20:52:24.231Z,17.60
2023-03-03T22:40:52.395Z,19.80
2023-03-03T22:43:22.129Z,19.80
2023-03-03T22:45:53.656Z,19.90
2023-03-03T22:48:25.130Z,20.00
2023-03-03T22:50:55.298Z,20.00
2023-03-03T22:53:25.487Z,20.10
2023-03-03T22:55:55.029Z,20.20
2023-03-03T22:58:28.858Z,20.20
2023-03-03T23:00:58.342Z,20.30
2023-03-03T23:03:28.795Z,20.30
2023-03-03T23:11:15.361Z,21.00
2023-03-03T23:13:44.714Z,21.10
2023-03-03T23:16:14.105Z,21.20
2023-03-03T23:18:44.395Z,21.20
2023-03-03T23:21:13.771Z,21.20
2023-03-03T23:23:43.133Z,21.20
2023-03-03T23:26:12.972Z,21.30
2023-03-03T23:28:42.382Z,21.30
2023-03-03T23:31:11.769Z,21.30
2023-03-03T23:33:41.209Z,21.30
2023-03-03T23:36:11.922Z,21.30
2023-03-03T23:38:43.087Z,21.40
2023-03-03T23:41:12.619Z,21.30
2023-03-03T23:43:42.832Z,21.40
2023-03-03T23:46:12.650Z,21.50
2023-03-03T23:48:42.251Z,21.60
2023-03-03T23:51:11.724Z,21.80
2023-03-03T23:53:41.179Z,22.10
2023-03-03T23:56:10.595Z,22.30
2023-03-03T23:58:40.468Z,22.60
